Time;durP1;ratioP1;P1;durP2;ratioP2;P2;SDS_P1;SDS_P2;PMS_P1;PMS_P2;Temp;Humidity;BMP_temperature;BMP_pressure;BME280_temperature;BME280_humidity;BME280_pressure;Samples;Min_cycle;Max_cycle;Signal;HPM_P1;HPM_P2
2022/05/29 00:02:24;;;;;;;;;;;;;;;22.11;65.20;99180.44;5032566;28;19962;-47
2022/05/29 00:04:49;;;;;;;;;;;;;;;21.82;64.94;99170.56;5032371;28;20019;-47
2022/05/29 00:07:16;;;;;;;;;;;;;;;21.35;66.86;99161.38;5031940;28;20325;-47
2022/05/29 00:09:44;;;;;;;;;;;;;;;21.03;69.58;99165.50;5032471;28;19912;-47
2022/05/29 00:12:10;;;;;;;;;;;;;;;20.80;70.10;99172.47;5030995;28;20357;-48
2022/05/29 00:14:36;;;;;;;;;;;;;;;20.57;71.32;99167.81;5032264;28;19909;-47
2022/05/29 00:17:02;;;;;;;;;;;;;;;21.29;69.81;99159.81;5031617;28;19936;-47
2022/05/29 00:19:27;;;;;;;;;;;;;;;21.48;66.60;99122.81;5032460;28;19909;-47
2022/05/29 00:21:54;;;;;;;;;;;;;;;21.36;66.39;99111.56;5032499;28;20015;-48
2022/05/29 00:24:19;;;;;;;;;;;;;;;20.89;68.33;99119.41;5032046;28;19909;-50
2022/05/29 00:26:45;;;;;;;;;;;;;;;21.13;67.51;99120.50;5031635;28;19913;-48
2022/05/29 00:29:10;;;;;;;;;;;;;;;20.99;66.83;99115.78;5030284;28;19962;-48
2022/05/29 00:31:35;;;;;;;;;;;;;;;21.13;66.67;99106.97;5031655;28;19924;-47
2022/05/29 00:34:01;;;;;;;;;;;;;;;21.00;67.71;99117.41;5032017;28;19975;-50
2022/05/29 00:36:28;;;;;;;;;;;;;;;21.49;66.47;99112.78;5049520;28;20304;-48
2022/05/29 00:38:53;;;;;;;;;;;;;;;21.60;65.55;99106.13;5050275;28;19909;-49
2022/05/29 00:41:26;;;;;;;;;;;;;;;21.97;64.01;99101.81;5051671;28;20295;-48
2022/05/29 00:44:14;;;;;;;;;;;;;;;21.98;63.96;99097.19;5051707;28;19916;-50
2022/05/29 00:46:47;;;;;;;;;;;;;;;22.11;64.03;99103.78;5051352;28;19919;-50
2022/05/29 00:49:12;;;;;;;;;;;;;;;21.65;64.37;99103.34;5051383;28;20353;-51
2022/05/29 00:51:58;;;;;;;;;;;;;;;21.39;65.57;99097.44;5051874;28;20062;-50
2022/05/29 00:54:24;;;;;;;;;;;;;;;21.20;64.31;99080.38;5047201;28;19920;-48
2022/05/29 00:56:50;;;;;;;;;;;;;;;21.59;62.90;99065.81;5050879;28;19908;-49
2022/05/29 00:59:21;;;;;;;;;;;;;;;21.35;64.23;99065.84;5050578;28;19913;-49
2022/05/29 01:01:46;;;;;;;;;;;;;;;21.77;62.96;99053.38;5051264;28;20353;-47
2022/05/29 01:04:12;;;;;;;;;;;;;;;21.76;63.17;99049.03;5050458;28;19919;-50
2022/05/29 01:06:38;;;;;;;;;;;;;;;21.85;62.61;99052.69;5050973;28;19916;-48
2022/05/29 01:09:05;;;;;;;;;;;;;;;21.46;63.19;99060.03;5051100;28;20369;-49
2022/05/29 01:11:43;;;;;;;;;;;;;;;21.63;63.42;99061.44;5050416;28;19915;-49
2022/05/29 01:14:20;;;;;;;;;;;;;;;21.61;63.28;99056.31;5050757;28;19915;-50
2022/05/29 01:17:05;;;;;;;;;;;;;;;21.97;61.11;99061.19;5050860;28;19915;-50
2022/05/29 01:19:46;;;;;;;;;;;;;;;22.19;61.00;99067.88;5050491;28;20019;-50
2022/05/29 01:22:17;;;;;;;;;;;;;;;22.17;60.97;99065.44;5050652;28;19935;-47
2022/05/29 01:24:42;;;;;;;;;;;;;;;22.14;60.60;99081.50;5050748;28;20000;-47
2022/05/29 01:27:27;;;;;;;;;;;;;;;22.34;59.78;99094.75;5050565;28;20412;-47
2022/05/29 01:30:10;;;;;;;;;;;;;;;22.42;59.53;99114.94;5050303;28;19969;-50
2022/05/29 01:32:49;;;;;;;;;;;;;;;21.53;62.31;99138.16;5050606;28;20023;-47
2022/05/29 01:35:29;;;;;;;;;;;;;;;20.96;65.67;99148.81;5042803;28;19913;-48
2022/05/29 01:38:30;;;;;;;;;;;;;;;20.71;66.17;99149.84;5031201;28;19952;-48
2022/05/29 01:41:03;;;;;;;;;;;;;;;21.70;62.58;99148.50;4969940;28;20043;-48
2022/05/29 01:43:37;;;;;;;;;;;;;;;21.96;62.39;99148.94;5020762;28;19992;-47
2022/05/29 01:46:07;;;;;;;;;;;;;;;22.19;61.59;99141.03;5030595;28;19945;-47
2022/05/29 01:48:41;;;;;;;;;;;;;;;22.08;62.84;99142.28;5029490;28;19920;-47
2022/05/29 01:51:18;;;;;;;;;;;;;;;21.76;62.24;99146.53;5030935;28;19940;-48
2022/05/29 01:53:59;;;;;;;;;;;;;;;21.59;62.84;99155.97;5030394;28;19943;-47
2022/05/29 01:56:29;;;;;;;;;;;;;;;21.95;61.29;99171.72;5030702;28;20282;-47
2022/05/29 01:58:57;;;;;;;;;;;;;;;21.35;62.82;99176.81;5031164;28;20355;-49
2022/05/29 02:01:25;;;;;;;;;;;;;;;21.23;63.82;99156.38;5031068;28;20337;-50
2022/05/29 02:03:52;;;;;;;;;;;;;;;20.78;64.82;99122.50;5031231;28;19909;-45
2022/05/29 02:09:22;;;;;;;;;;;;;;;20.26;67.35;99068.91;5031489;28;20308;-46
2022/05/29 02:11:50;;;;;;;;;;;;;;;20.35;67.85;99071.78;5030868;28;19999;-45
2022/05/29 02:14:19;;;;;;;;;;;;;;;20.69;67.26;99106.91;5031105;28;19927;-45
2022/05/29 02:16:52;;;;;;;;;;;;;;;21.10;66.24;99162.47;5032589;28;19909;-46
2022/05/29 02:19:22;;;;;;;;;;;;;;;20.82;68.25;99202.75;5034990;28;19943;-46
2022/05/29 02:22:00;;;;;;;;;;;;;;;20.26;70.77;99222.09;5035362;28;19936;-46
2022/05/29 02:24:30;;;;;;;;;;;;;;;20.16;71.57;99224.84;5035013;28;19995;-46
2022/05/29 02:27:07;;;;;;;;;;;;;;;20.70;69.07;99210.44;5035093;28;19958;-46
2022/05/29 02:29:33;;;;;;;;;;;;;;;20.88;68.67;99179.97;5034683;28;19920;-46
2022/05/29 02:32:17;;;;;;;;;;;;;;;20.92;67.80;99163.19;5034294;28;19917;-46
2022/05/29 02:34:45;;;;;;;;;;;;;;;21.35;66.13;99139.72;5042398;28;19923;-47
2022/05/29 02:37:14;;;;;;;;;;;;;;;21.43;66.19;99130.94;5034080;28;19916;-48
2022/05/29 02:39:58;;;;;;;;;;;;;;;21.61;66.24;99136.69;5034421;28;19909;-46
2022/05/29 02:42:41;;;;;;;;;;;;;;;21.70;66.58;99155.81;5034470;28;20361;-47
2022/05/29 02:45:25;;;;;;;;;;;;;;;21.05;68.09;99179.53;5034003;28;19909;-46
2022/05/29 02:48:09;;;;;;;;;;;;;;;20.75;69.26;99169.81;5034108;28;19909;-46
2022/05/29 02:50:44;;;;;;;;;;;;;;;20.00;73.00;99162.81;5033574;28;19913;-47
2022/05/29 02:53:11;;;;;;;;;;;;;;;19.78;75.34;99181.28;5033564;28;19913;-47
2022/05/29 02:55:37;;;;;;;;;;;;;;;20.33;71.83;99181.22;5033803;28;20007;-47
2022/05/29 02:58:04;;;;;;;;;;;;;;;21.10;69.16;99197.63;5033677;28;19960;-47
2022/05/29 03:00:33;;;;;;;;;;;;;;;21.51;67.34;99226.97;5034186;28;19913;-46
2022/05/29 03:02:58;;;;;;;;;;;;;;;21.84;65.89;99229.84;5034015;28;20335;-46
2022/05/29 03:05:43;;;;;;;;;;;;;;;21.88;66.00;99224.66;5033772;28;19913;-46
2022/05/29 03:08:21;;;;;;;;;;;;;;;21.84;65.91;99235.25;5032993;28;19916;-45
2022/05/29 03:10:55;;;;;;;;;;;;;;;21.83;66.49;99250.69;5032634;28;19913;-46
2022/05/29 03:13:20;;;;;;;;;;;;;;;21.95;65.49;99225.09;5033882;28;19909;-46
2022/05/29 03:15:49;;;;;;;;;;;;;;;21.54;65.76;99206.66;5033715;28;20311;-46
2022/05/29 03:18:26;;;;;;;;;;;;;;;20.92;68.99;99174.00;5033568;28;20365;-46
2022/05/29 03:20:58;;;;;;;;;;;;;;;20.65;68.97;99173.41;5033785;28;19909;-46
2022/05/29 03:23:23;;;;;;;;;;;;;;;20.38;71.16;99171.19;5033694;28;20353;-46
2022/05/29 03:25:52;;;;;;;;;;;;;;;20.75;69.62;99177.13;5033385;28;19919;-46
2022/05/29 03:28:27;;;;;;;;;;;;;;;20.88;69.67;99181.88;5033001;28;19909;-46
2022/05/29 03:30:54;;;;;;;;;;;;;;;20.98;69.02;99191.78;5033161;28;20007;-46
2022/05/29 03:33:19;;;;;;;;;;;;;;;20.56;69.82;99161.59;5033219;28;19956;-46
2022/05/29 03:35:53;;;;;;;;;;;;;;;20.28;71.47;99131.56;5033213;28;19986;-46
2022/05/29 03:38:20;;;;;;;;;;;;;;;20.19;72.84;99114.34;5033157;28;19915;-46
2022/05/29 03:40:46;;;;;;;;;;;;;;;20.47;71.32;99123.56;5032991;28;19909;-47
2022/05/29 03:43:11;;;;;;;;;;;;;;;20.87;69.97;99143.22;5033070;28;19995;-47
2022/05/29 03:45:36;;;;;;;;;;;;;;;21.19;69.34;99147.22;5033276;28;20045;-48
2022/05/29 03:48:02;;;;;;;;;;;;;;;21.16;69.86;99131.56;5032861;28;19923;-47
2022/05/29 03:50:28;;;;;;;;;;;;;;;21.57;68.10;99078.84;5032872;28;19936;-49
2022/05/29 03:52:54;;;;;;;;;;;;;;;21.25;68.69;99062.19;5033258;28;20341;-47
2022/05/29 03:55:26;;;;;;;;;;;;;;;21.46;68.15;99076.28;5032725;28;19916;-47
2022/05/29 03:57:52;;;;;;;;;;;;;;;21.75;67.86;99088.88;5032373;28;19908;-45
2022/05/29 04:00:18;;;;;;;;;;;;;;;22.03;65.49;99081.66;5032502;28;20399;-45
2022/05/29 04:02:45;;;;;;;;;;;;;;;21.92;66.05;99090.25;5032921;28;19909;-46
2022/05/29 04:05:13;;;;;;;;;;;;;;;22.01;65.55;99094.72;5032500;28;19916;-47
2022/05/29 04:13:07;;;;;;;;;;;;;;;22.51;63.56;99093.38;5032365;28;19919;-46
2022/05/29 04:15:32;;;;;;;;;;;;;;;22.71;62.81;99084.06;5031991;28;20440;-48
2022/05/29 04:17:57;;;;;;;;;;;;;;;22.56;62.78;99079.72;5031870;28;19915;-47
2022/05/29 04:20:23;;;;;;;;;;;;;;;22.79;62.49;99086.91;5032066;28;19975;-49
2022/05/29 04:22:48;;;;;;;;;;;;;;;22.90;63.15;99086.69;5031903;28;19913;-48
2022/05/29 04:25:13;;;;;;;;;;;;;;;22.95;62.09;99084.69;5032099;28;19913;-49
2022/05/29 04:27:39;;;;;;;;;;;;;;;23.25;60.60;99085.22;5031920;28;20399;-48
2022/05/29 04:30:05;;;;;;;;;;;;;;;22.98;60.69;99089.53;5032066;28;20015;-47
2022/05/29 04:35:14;;;;;;;;;;;;;;;22.30;62.67;99096.44;5040340;28;20437;-48
2022/05/29 04:37:39;;;;;;;;;;;;;;;22.94;61.11;99102.09;5051333;28;19912;-47
2022/05/29 04:40:05;;;;;;;;;;;;;;;23.25;61.15;99100.66;5050675;28;19908;-47
2022/05/29 04:42:30;;;;;;;;;;;;;;;24.01;59.84;99081.91;5051277;28;20567;-48
2022/05/29 04:44:56;;;;;;;;;;;;;;;24.57;57.14;99087.88;5051107;28;20264;-47
2022/05/29 04:47:21;;;;;;;;;;;;;;;24.95;53.35;99080.03;5051199;28;19950;-48
2022/05/29 04:49:46;;;;;;;;;;;;;;;24.97;53.22;99077.00;5051456;28;19974;-47
2022/05/29 04:52:12;;;;;;;;;;;;;;;25.06;53.76;99068.88;5051949;28;19934;-38
2022/05/29 04:54:38;;;;;;;;;;;;;;;25.02;53.28;99057.00;5051134;28;19912;-37
2022/05/29 04:57:05;;;;;;;;;;;;;;;25.22;53.90;99089.06;5051298;28;19908;-37
2022/05/29 04:59:31;;;;;;;;;;;;;;;25.24;54.22;99099.69;5050841;28;19915;-37
2022/05/29 05:02:00;;;;;;;;;;;;;;;25.35;54.57;99103.72;5051202;28;19908;-37
2022/05/29 05:04:25;;;;;;;;;;;;;;;25.32;54.74;99110.63;5051086;28;20274;-37
2022/05/29 05:06:53;;;;;;;;;;;;;;;25.09;53.65;99107.16;5050978;28;20345;-37
2022/05/29 05:09:18;;;;;;;;;;;;;;;24.45;54.93;99104.75;5051233;28;20293;-38
2022/05/29 05:11:44;;;;;;;;;;;;;;;24.39;56.20;99104.06;5051132;28;19909;-38
2022/05/29 05:14:09;;;;;;;;;;;;;;;23.83;58.66;99108.13;5051152;28;19982;-38
2022/05/29 05:16:34;;;;;;;;;;;;;;;24.02;59.14;99109.88;5050586;28;20295;-37
2022/05/29 05:19:00;;;;;;;;;;;;;;;24.60;57.74;99122.63;5050976;28;19916;-38
2022/05/29 05:21:25;;;;;;;;;;;;;;;24.90;56.10;99118.28;5050934;28;20008;-37
2022/05/29 05:23:50;;;;;;;;;;;;;;;24.93;55.38;99120.38;5050955;28;19943;-38
2022/05/29 05:26:16;;;;;;;;;;;;;;;24.37;56.52;99113.66;5050293;28;19925;-38
2022/05/29 05:28:41;;;;;;;;;;;;;;;24.96;55.38;99102.63;5050681;28;20381;-36
2022/05/29 05:31:07;;;;;;;;;;;;;;;24.84;55.52;99089.59;5050320;28;19916;-37
2022/05/29 05:33:32;;;;;;;;;;;;;;;24.19;57.17;99089.06;5050824;28;19912;-37
2022/05/29 05:35:57;;;;;;;;;;;;;;;24.20;57.22;99096.13;5036325;28;19909;-36
2022/05/29 05:38:23;;;;;;;;;;;;;;;24.74;56.12;99112.44;5030903;28;19951;-37
2022/05/29 05:40:48;;;;;;;;;;;;;;;24.95;54.60;99104.53;5030708;28;19909;-37
2022/05/29 05:43:13;;;;;;;;;;;;;;;25.44;53.83;99109.19;5030647;28;19984;-37
2022/05/29 05:45:40;;;;;;;;;;;;;;;25.41;53.88;99107.09;5030614;28;19912;-37
2022/05/29 05:48:05;;;;;;;;;;;;;;;24.82;54.89;99102.72;5030151;28;19908;-37
2022/05/29 05:50:31;;;;;;;;;;;;;;;24.42;56.83;99101.84;5031406;28;19924;-37
2022/05/29 05:52:56;;;;;;;;;;;;;;;24.78;55.99;99104.47;5034494;28;19913;-37
2022/05/29 05:55:21;;;;;;;;;;;;;;;24.88;56.47;99109.63;5034504;28;20591;-37
2022/05/29 05:57:47;;;;;;;;;;;;;;;25.38;55.67;99110.44;5034128;28;19920;-38
2022/05/29 06:00:13;;;;;;;;;;;;;;;25.36;54.22;99111.56;5034433;28;19913;-38
2022/05/29 06:02:42;;;;;;;;;;;;;;;25.63;54.56;99106.19;5034313;28;19909;-38
2022/05/29 06:05:09;;;;;;;;;;;;;;;26.01;53.84;99100.09;5034284;28;19948;-38
2022/05/29 06:07:34;;;;;;;;;;;;;;;26.14;53.68;99101.84;5034040;28;19909;-38
2022/05/29 06:09:59;;;;;;;;;;;;;;;26.35;52.98;99110.19;5033910;28;19921;-38
2022/05/29 06:12:24;;;;;;;;;;;;;;;25.16;55.71;99128.47;5034140;28;20388;-38
2022/05/29 06:14:50;;;;;;;;;;;;;;;24.28;58.64;99115.53;5042872;28;19913;-38
2022/05/29 06:17:15;;;;;;;;;;;;;;;22.79;63.13;99107.75;5053110;28;20007;-38
2022/05/29 06:19:41;;;;;;;;;;;;;;;23.08;63.19;99110.25;5053561;28;19965;-38
2022/05/29 06:22:07;;;;;;;;;;;;;;;23.27;62.60;99103.91;5053851;28;19936;-38
2022/05/29 06:24:33;;;;;;;;;;;;;;;23.01;64.40;99104.38;5053421;28;20380;-38
2022/05/29 06:26:59;;;;;;;;;;;;;;;23.16;63.08;99079.69;5053352;28;19912;-38
2022/05/29 06:29:24;;;;;;;;;;;;;;;23.16;64.22;99092.44;5053383;28;19908;-38
2022/05/29 06:31:49;;;;;;;;;;;;;;;23.07;63.59;99096.97;5053333;28;19916;-38
2022/05/29 06:34:15;;;;;;;;;;;;;;;22.86;62.58;99088.41;5053731;28;19948;-38
2022/05/29 06:36:40;;;;;;;;;;;;;;;23.09;63.15;99092.03;5033530;28;19916;-37
2022/05/29 06:39:07;;;;;;;;;;;;;;;23.39;62.74;99087.91;5033737;28;19921;-38
2022/05/29 06:41:34;;;;;;;;;;;;;;;23.98;61.16;99083.31;5033132;28;19919;-38
2022/05/29 06:43:59;;;;;;;;;;;;;;;24.20;60.67;99087.97;5033425;28;20344;-37
2022/05/29 06:46:25;;;;;;;;;;;;;;;23.70;62.30;99090.72;5033187;28;20385;-38
2022/05/29 06:48:50;;;;;;;;;;;;;;;23.76;62.28;99108.53;5033402;28;19909;-38
2022/05/29 06:51:22;;;;;;;;;;;;;;;24.28;61.14;99108.16;5033439;28;19955;-38
2022/05/29 06:53:49;;;;;;;;;;;;;;;24.58;60.18;99103.88;5033642;28;19917;-38
2022/05/29 06:56:15;;;;;;;;;;;;;;;25.31;59.05;99100.81;5052482;28;19966;-38
2022/05/29 06:58:40;;;;;;;;;;;;;;;25.59;55.37;99106.00;5053390;28;20280;-38
2022/05/29 07:09:19;;;;;;;;;;;;;;;26.76;52.50;99097.88;5033203;28;19915;-49
2022/05/29 07:11:47;;;;;;;;;;;;;;;26.80;53.02;99098.03;5032595;28;20334;-49
2022/05/29 07:14:12;;;;;;;;;;;;;;;27.07;51.95;99099.50;5032396;28;19916;-51
2022/05/29 07:16:38;;;;;;;;;;;;;;;26.77;53.12;99099.50;5032518;28;19999;-49
2022/05/29 07:19:04;;;;;;;;;;;;;;;26.48;53.77;99086.53;5032240;28;19940;-49
2022/05/29 07:21:33;;;;;;;;;;;;;;;26.28;55.10;99085.31;5031755;28;19909;-50
2022/05/29 07:23:58;;;;;;;;;;;;;;;26.22;55.46;99083.91;5031626;28;19909;-51
2022/05/29 07:26:23;;;;;;;;;;;;;;;26.56;53.52;99090.38;5032132;28;19913;-49
2022/05/29 07:28:49;;;;;;;;;;;;;;;27.29;52.18;99091.06;5031909;28;20284;-50
2022/05/29 07:31:14;;;;;;;;;;;;;;;27.06;53.25;99078.81;5032238;28;19970;-38
2022/05/29 07:33:39;;;;;;;;;;;;;;;27.63;51.93;99078.31;5032186;28;19913;-38
2022/05/29 07:36:11;;;;;;;;;;;;;;;28.31;49.93;99079.16;5032184;28;19945;-37
2022/05/29 07:38:37;;;;;;;;;;;;;;;28.26;49.36;99071.97;5032733;28;19915;-38
2022/05/29 07:43:18;;;;;;;;;;;;;;;28.22;49.13;99071.06;5032591;28;19912;-49
2022/05/29 07:43:48;;;;;;;;;;;;;;;27.44;47.19;99070.56;5032146;28;19952;-38
2022/05/29 07:46:13;;;;;;;;;;;;;;;26.43;50.21;99063.00;5032112;28;19955;-40
2022/05/29 07:48:38;;;;;;;;;;;;;;;26.26;51.03;99058.38;5032697;28;20064;-37
2022/05/29 07:51:04;;;;;;;;;;;;;;;25.79;53.00;99060.19;5032249;28;20226;-37
2022/05/29 07:53:29;;;;;;;;;;;;;;;26.49;51.55;99049.97;5032267;28;19944;-37
2022/05/29 07:55:55;;;;;;;;;;;;;;;26.90;51.68;99068.47;5031912;28;19920;-38
2022/05/29 07:58:20;;;;;;;;;;;;;;;26.37;52.43;99056.13;5032027;28;20391;-38
2022/05/29 08:00:45;;;;;;;;;;;;;;;26.69;51.59;99049.28;5032056;28;19909;-38
2022/05/29 08:03:11;;;;;;;;;;;;;;;27.02;51.09;99059.56;5031811;28;20000;-39
2022/05/29 08:05:37;;;;;;;;;;;;;;;26.79;50.10;99052.75;5050845;28;19919;-38
2022/05/29 08:08:08;;;;;;;;;;;;;;;26.22;52.06;99049.25;5051993;28;19909;-38
2022/05/29 08:10:34;;;;;;;;;;;;;;;26.48;51.68;99043.72;5051807;28;19920;-36
2022/05/29 08:13:00;;;;;;;;;;;;;;;26.97;50.68;99032.44;5052082;28;19908;-38
2022/05/29 08:15:25;;;;;;;;;;;;;;;26.59;50.70;99043.34;5050648;28;19915;-38
2022/05/29 08:17:51;;;;;;;;;;;;;;;26.46;52.07;99045.94;5051648;28;19908;-38
2022/05/29 08:20:16;;;;;;;;;;;;;;;26.42;52.05;99031.38;5051587;28;19909;-50
2022/05/29 08:22:41;;;;;;;;;;;;;;;26.17;53.78;99037.72;5051779;28;20414;-52
2022/05/29 08:30:40;;;;;;;;;;;;;;;26.46;51.87;99034.25;5051479;28;19926;-50
2022/05/29 08:33:14;;;;;;;;;;;;;;;26.80;51.53;99018.91;5051462;28;20443;-51
2022/05/29 08:35:41;;;;;;;;;;;;;;;26.68;52.08;99016.88;5039936;28;19909;-51
2022/05/29 08:38:07;;;;;;;;;;;;;;;26.58;51.24;99017.19;5030749;28;19923;-52
2022/05/29 08:40:33;;;;;;;;;;;;;;;26.37;51.56;99014.38;5031285;28;19941;-52
2022/05/29 08:42:58;;;;;;;;;;;;;;;26.09;53.04;99015.59;5031421;28;19913;-51
2022/05/29 08:45:25;;;;;;;;;;;;;;;27.35;51.18;99019.88;5031237;28;19932;-51
2022/05/29 08:47:50;;;;;;;;;;;;;;;28.58;47.63;99023.84;5030752;28;19909;-53
2022/05/29 08:50:36;;;;;;;;;;;;;;;27.88;47.81;99021.03;5030837;28;19913;-51
2022/05/29 08:53:06;;;;;;;;;;;;;;;27.95;48.92;99013.09;5030373;28;19919;-51
2022/05/29 08:55:40;;;;;;;;;;;;;;;27.99;48.78;99016.75;5030770;28;19936;-52
2022/05/29 08:58:08;;;;;;;;;;;;;;;28.08;47.70;99011.19;5030254;28;20240;-52
2022/05/29 09:00:52;;;;;;;;;;;;;;;28.64;46.85;99014.28;5030148;28;20388;-52
2022/05/29 09:03:35;;;;;;;;;;;;;;;27.92;47.76;99030.16;5030612;28;19909;-51
2022/05/29 09:06:04;;;;;;;;;;;;;;;27.45;49.32;99009.31;5030013;28;19912;-51
2022/05/29 09:08:56;;;;;;;;;;;;;;;28.39;47.71;98996.22;5030630;28;19973;-51
2022/05/29 09:11:41;;;;;;;;;;;;;;;28.17;47.78;98992.75;5029089;28;19913;-52
2022/05/29 09:14:13;;;;;;;;;;;;;;;28.30;48.58;98993.56;5029838;28;19909;-52
2022/05/29 09:16:43;;;;;;;;;;;;;;;28.65;46.96;98993.97;5029902;28;19916;-52
2022/05/29 09:19:29;;;;;;;;;;;;;;;28.26;45.86;98979.00;5030703;28;19916;-52
2022/05/29 09:21:58;;;;;;;;;;;;;;;27.10;48.68;98970.53;5026118;28;19920;-52
2022/05/29 09:24:31;;;;;;;;;;;;;;;26.76;49.82;98977.81;5031044;28;19921;-51
2022/05/29 09:26:57;;;;;;;;;;;;;;;27.28;49.83;98968.50;5038130;28;19917;-52
2022/05/29 09:29:22;;;;;;;;;;;;;;;28.02;47.67;98955.91;5039984;28;19913;-51
2022/05/29 09:31:47;;;;;;;;;;;;;;;28.54;46.72;98964.66;5039623;28;19925;-51
2022/05/29 09:34:12;;;;;;;;;;;;;;;28.41;46.30;98963.84;5044078;28;19916;-51
2022/05/29 09:36:51;;;;;;;;;;;;;;;27.37;48.45;98958.31;5039858;28;19915;-52
2022/05/29 09:39:17;;;;;;;;;;;;;;;27.76;47.63;98961.66;5036528;28;19909;-53
2022/05/29 09:41:50;;;;;;;;;;;;;;;27.57;48.20;98955.88;5041425;28;19920;-38
2022/05/29 09:44:17;;;;;;;;;;;;;;;28.04;48.03;98952.84;5041941;28;19912;-38
2022/05/29 09:46:44;;;;;;;;;;;;;;;28.47;47.23;98954.25;5049998;28;19920;-37
2022/05/29 09:52:10;;;;;;;;;;;;;;;28.55;46.03;98936.97;5050805;28;20308;-37
2022/05/29 09:54:38;;;;;;;;;;;;;;;29.46;45.69;98935.75;5050287;28;20629;-38
2022/05/29 09:57:11;;;;;;;;;;;;;;;29.15;45.10;98915.31;5050246;28;19978;-38
2022/05/29 09:59:38;;;;;;;;;;;;;;;29.47;44.73;98909.91;5050219;28;19909;-38
2022/05/29 10:02:04;;;;;;;;;;;;;;;30.28;44.50;98906.91;5050576;28;19951;-38
2022/05/29 10:04:37;;;;;;;;;;;;;;;29.46;44.71;98907.56;5050277;28;19947;-38
2022/05/29 10:07:17;;;;;;;;;;;;;;;28.58;46.75;98900.72;5050377;28;19913;-37
2022/05/29 10:09:57;;;;;;;;;;;;;;;28.59;47.35;98898.75;5050404;28;20303;-38
2022/05/29 10:12:32;;;;;;;;;;;;;;;29.40;44.51;98888.63;5050381;28;19999;-38
2022/05/29 10:14:57;;;;;;;;;;;;;;;28.69;45.68;98892.00;5049760;28;19909;-37
2022/05/29 10:17:28;;;;;;;;;;;;;;;28.45;47.08;98883.47;5050378;28;19908;-37
2022/05/29 10:19:53;;;;;;;;;;;;;;;28.14;47.72;98883.25;5049579;28;20293;-37
2022/05/29 10:22:28;;;;;;;;;;;;;;;27.82;48.26;98880.25;5049093;28;20071;-37
2022/05/29 10:24:54;;;;;;;;;;;;;;;28.20;47.48;98890.09;5050055;28;20430;-38
2022/05/29 10:27:30;;;;;;;;;;;;;;;28.47;47.60;98875.72;5049871;28;19913;-38
2022/05/29 10:30:08;;;;;;;;;;;;;;;29.48;45.36;98859.47;5049958;28;19909;-38
2022/05/29 10:32:35;;;;;;;;;;;;;;;28.09;47.02;98876.06;5049631;28;19917;-37
2022/05/29 10:35:07;;;;;;;;;;;;;;;28.06;47.31;98855.69;5043678;28;19916;-37
2022/05/29 10:37:40;;;;;;;;;;;;;;;28.10;47.53;98846.78;5031236;28;19909;-38
2022/05/29 10:40:10;;;;;;;;;;;;;;;28.46;47.57;98838.56;5033747;28;19909;-38
2022/05/29 10:42:44;;;;;;;;;;;;;;;28.53;48.04;98837.22;5034445;28;19909;-37
2022/05/29 10:45:20;;;;;;;;;;;;;;;29.09;47.01;98815.31;5033942;28;20302;-37
2022/05/29 10:47:52;;;;;;;;;;;;;;;28.97;45.92;98799.75;5033378;28;19953;-37
2022/05/29 10:50:21;;;;;;;;;;;;;;;29.05;45.25;98814.44;5033929;28;19913;-38
2022/05/29 10:52:49;;;;;;;;;;;;;;;29.49;45.80;98789.78;5033987;28;19932;-37
2022/05/29 10:55:20;;;;;;;;;;;;;;;29.68;44.54;98782.81;5033914;28;19913;-38
2022/05/29 10:58:08;;;;;;;;;;;;;;;29.66;44.86;98790.59;5032754;28;19909;-38
2022/05/29 11:00:40;;;;;;;;;;;;;;;30.90;42.92;98788.31;5033665;28;20080;-38
2022/05/29 11:03:31;;;;;;;;;;;;;;;29.80;42.88;98766.31;5033659;28;20241;-38
2022/05/29 11:06:05;;;;;;;;;;;;;;;29.26;42.69;98783.31;5033465;28;19916;-38
2022/05/29 11:08:30;;;;;;;;;;;;;;;29.03;43.59;98765.53;5033399;28;19909;-38
2022/05/29 11:11:02;;;;;;;;;;;;;;;29.22;42.99;98770.31;5033859;28;20012;-37
2022/05/29 11:13:48;;;;;;;;;;;;;;;29.24;44.30;98761.75;5033274;28;19912;-37
2022/05/29 11:16:20;;;;;;;;;;;;;;;30.01;43.39;98761.31;5032754;28;19999;-38
2022/05/29 11:18:48;;;;;;;;;;;;;;;30.37;43.46;98751.16;5032907;28;19967;-38
2022/05/29 11:21:23;;;;;;;;;;;;;;;31.08;41.33;98753.72;5033278;28;19943;-38
2022/05/29 11:24:00;;;;;;;;;;;;;;;30.33;42.55;98753.03;5032567;28;19917;-49
2022/05/29 11:26:34;;;;;;;;;;;;;;;30.07;42.82;98728.13;5032615;28;20008;-51
2022/05/29 11:29:08;;;;;;;;;;;;;;;30.52;42.66;98734.97;5032007;28;19909;-38
2022/05/29 11:31:48;;;;;;;;;;;;;;;30.36;42.67;98726.81;5031909;28;19944;-38
2022/05/29 11:34:25;;;;;;;;;;;;;;;30.80;42.18;98721.00;5033118;28;19913;-37
2022/05/29 11:36:56;;;;;;;;;;;;;;;30.10;43.97;98716.44;5032746;28;20372;-38
2022/05/29 11:39:38;;;;;;;;;;;;;;;30.25;43.75;98723.03;5036789;28;19908;-38
2022/05/29 11:42:13;;;;;;;;;;;;;;;30.56;44.16;98708.41;5053164;28;19916;-38
2022/05/29 11:44:47;;;;;;;;;;;;;;;30.33;44.21;98719.28;5052952;28;20380;-37
2022/05/29 11:53:36;;;;;;;;;;;;;;;29.41;45.19;98698.41;5040631;28;19971;-37
2022/05/29 11:56:05;;;;;;;;;;;;;;;29.74;44.98;98690.97;5032239;28;19943;-51
2022/05/29 11:58:30;;;;;;;;;;;;;;;30.31;44.92;98674.94;5052459;28;19966;-51
2022/05/29 12:01:15;;;;;;;;;;;;;;;29.63;44.71;98687.97;5052182;28;20407;-50
2022/05/29 12:03:44;;;;;;;;;;;;;;;29.92;44.62;98675.72;5052948;28;19909;-49
2022/05/29 12:06:09;;;;;;;;;;;;;;;29.98;44.76;98703.66;5052037;28;19920;-50
2022/05/29 12:08:42;;;;;;;;;;;;;;;29.63;45.92;98685.22;5052321;28;19908;-51
2022/05/29 12:11:26;;;;;;;;;;;;;;;29.16;46.42;98686.03;5051850;28;19908;-51
2022/05/29 12:13:54;;;;;;;;;;;;;;;29.19;46.67;98661.50;5051903;28;19909;-49
2022/05/29 12:16:20;;;;;;;;;;;;;;;29.49;46.41;98646.50;5051901;28;19908;-50
2022/05/29 12:18:48;;;;;;;;;;;;;;;29.27;46.97;98628.78;5051963;28;19912;-50
2022/05/29 12:21:15;;;;;;;;;;;;;;;29.69;46.47;98609.00;5051717;28;19935;-50
2022/05/29 12:23:43;;;;;;;;;;;;;;;29.47;47.53;98607.72;5051824;28;20361;-49
2022/05/29 12:26:15;;;;;;;;;;;;;;;29.29;48.15;98594.41;5051404;28;19920;-51
2022/05/29 12:28:43;;;;;;;;;;;;;;;29.76;47.00;98618.19;5052094;28;19909;-51
2022/05/29 12:31:13;;;;;;;;;;;;;;;29.67;46.78;98587.41;5052108;28;19916;-49
2022/05/29 12:33:42;;;;;;;;;;;;;;;29.24;46.62;98581.78;5050583;28;20390;-49
2022/05/29 12:36:28;;;;;;;;;;;;;;;29.70;46.15;98574.94;5035419;28;20353;-53
2022/05/29 12:38:53;;;;;;;;;;;;;;;29.72;46.69;98578.91;5031838;28;19913;-51
2022/05/29 12:41:18;;;;;;;;;;;;;;;30.31;46.25;98582.47;5031710;28;20250;-50
2022/05/29 12:44:09;;;;;;;;;;;;;;;29.86;46.27;98583.94;5031846;28;20075;-49
2022/05/29 12:46:34;;;;;;;;;;;;;;;30.07;46.05;98583.56;5031361;28;19917;-37
2022/05/29 12:49:03;;;;;;;;;;;;;;;29.68;44.97;98564.31;5031664;28;19916;-37
2022/05/29 12:51:28;;;;;;;;;;;;;;;29.70;44.49;98563.97;5032065;28;20357;-38
2022/05/29 12:54:02;;;;;;;;;;;;;;;29.63;44.26;98548.97;5031427;28;19921;-38
2022/05/29 12:56:55;;;;;;;;;;;;;;;29.76;44.15;98552.41;5031368;28;19909;-38
2022/05/29 12:59:29;;;;;;;;;;;;;;;30.21;44.24;98519.94;5031040;28;19908;-39
2022/05/29 13:02:30;;;;;;;;;;;;;;;29.67;44.86;98515.38;5031164;28;19992;-38
2022/05/29 13:04:58;;;;;;;;;;;;;;;29.71;45.04;98499.78;5009113;28;19915;-38
2022/05/29 13:07:24;;;;;;;;;;;;;;;30.19;44.57;98501.09;5026512;28;20352;-38
2022/05/29 13:10:01;;;;;;;;;;;;;;;30.48;44.20;98509.88;5031298;28;19909;-38
2022/05/29 13:12:35;;;;;;;;;;;;;;;31.04;42.96;98524.13;5030914;28;19995;-36
2022/05/29 13:15:05;;;;;;;;;;;;;;;30.62;43.36;98503.03;5031137;28;20381;-37
2022/05/29 13:17:32;;;;;;;;;;;;;;;30.24;44.20;98482.78;5031014;28;20412;-37
2022/05/29 13:19:59;;;;;;;;;;;;;;;30.49;43.99;98499.69;5031505;28;20361;-38
2022/05/29 13:22:43;;;;;;;;;;;;;;;30.31;43.63;98496.59;5031166;28;20218;-38
2022/05/29 13:25:08;;;;;;;;;;;;;;;30.28;44.11;98494.59;5030849;28;19928;-38
2022/05/29 13:27:34;;;;;;;;;;;;;;;30.19;44.03;98478.38;5030493;28;19917;-38
2022/05/29 13:30:00;;;;;;;;;;;;;;;30.45;43.05;98474.16;5030899;28;19909;-37
2022/05/29 13:32:27;;;;;;;;;;;;;;;30.13;44.05;98493.56;5030842;28;19909;-37
2022/05/29 13:34:53;;;;;;;;;;;;;;;30.28;44.09;98483.63;5036324;28;20034;-38
2022/05/29 13:37:22;;;;;;;;;;;;;;;30.15;44.42;98469.28;5050329;28;19904;-37